sensor_id;sensor_type;location;lat;lon;timestamp;P1;durP1;ratioP1;P2;durP2;ratioP2
10440;SDS011;5268;49.346;9.522;2023-08-17T03:08:39;2.22;;;1.90;;
10440;SDS011;5268;49.346;9.522;2023-08-17T03:13:41;2.88;;;1.90;;
10440;SDS011;5268;49.346;9.522;2023-08-17T03:18:43;2.55;;;2.05;;
10440;SDS011;5268;49.346;9.522;2023-08-17T03:23:46;4.80;;;2.08;;
10440;SDS011;5268;49.346;9.522;2023-08-17T03:28:48;2.55;;;2.05;;
10440;SDS011;5268;49.346;9.522;2023-08-17T03:33:50;3.33;;;1.98;;
10440;SDS011;5268;49.346;9.522;2023-08-17T03:38:54;2.70;;;1.95;;
10440;SDS011;5268;49.346;9.522;2023-08-17T03:43:56;2.47;;;2.00;;
10440;SDS011;5268;49.346;9.522;2023-08-17T03:48:58;3.47;;;2.30;;
10440;SDS011;5268;49.346;9.522;2023-08-17T03:54:01;4.47;;;2.35;;
10440;SDS011;5268;49.346;9.522;2023-08-17T03:59:03;4.25;;;2.20;;
10440;SDS011;5268;49.346;9.522;2023-08-17T04:04:06;3.42;;;2.20;;
10440;SDS011;5268;49.346;9.522;2023-08-17T04:09:10;3.50;;;2.00;;
10440;SDS011;5268;49.346;9.522;2023-08-17T04:14:12;3.45;;;2.08;;
10440;SDS011;5268;49.346;9.522;2023-08-17T04:19:14;3.22;;;2.15;;
10440;SDS011;5268;49.346;9.522;2023-08-17T04:24:17;2.63;;;2.10;;
10440;SDS011;5268;49.346;9.522;2023-08-17T04:29:19;3.40;;;2.30;;
10440;SDS011;5268;49.346;9.522;2023-08-17T04:34:21;3.13;;;2.30;;
10440;SDS011;5268;49.346;9.522;2023-08-17T04:39:25;3.55;;;2.25;;
10440;SDS011;5268;49.346;9.522;2023-08-17T04:44:27;3.63;;;2.33;;
10440;SDS011;5268;49.346;9.522;2023-08-17T04:49:29;3.90;;;2.40;;
10440;SDS011;5268;49.346;9.522;2023-08-17T04:54:32;3.75;;;3.00;;
10440;SDS011;5268;49.346;9.522;2023-08-17T04:59:35;3.42;;;2.95;;
10440;SDS011;5268;49.346;9.522;2023-08-17T05:04:37;6.82;;;4.35;;
10440;SDS011;5268;49.346;9.522;2023-08-17T05:09:41;5.90;;;3.88;;
10440;SDS011;5268;49.346;9.522;2023-08-17T05:14:43;5.00;;;4.10;;
10440;SDS011;5268;49.346;9.522;2023-08-17T05:19:45;5.45;;;4.18;;
10440;SDS011;5268;49.346;9.522;2023-08-17T05:24:48;5.95;;;4.35;;
10440;SDS011;5268;49.346;9.522;2023-08-17T05:29:50;7.60;;;4.75;;
10440;SDS011;5268;49.346;9.522;2023-08-17T05:34:52;5.53;;;4.82;;
10440;SDS011;5268;49.346;9.522;2023-08-17T05:39:56;5.70;;;5.10;;
10440;SDS011;5268;49.346;9.522;2023-08-17T05:44:58;8.38;;;5.55;;
10440;SDS011;5268;49.346;9.522;2023-08-17T05:50:00;6.20;;;5.50;;
10440;SDS011;5268;49.346;9.522;2023-08-17T05:56:04;8.10;;;6.20;;
10440;SDS011;5268;49.346;9.522;2023-08-17T06:01:06;7.47;;;5.88;;
10440;SDS011;5268;49.346;9.522;2023-08-17T06:06:09;5.93;;;5.32;;
10440;SDS011;5268;49.346;9.522;2023-08-17T06:11:13;8.10;;;6.10;;
10440;SDS011;5268;49.346;9.522;2023-08-17T06:16:15;6.05;;;5.05;;
10440;SDS011;5268;49.346;9.522;2023-08-17T06:21:17;7.93;;;5.97;;
10440;SDS011;5268;49.346;9.522;2023-08-17T06:26:21;6.95;;;5.82;;
10440;SDS011;5268;49.346;9.522;2023-08-17T06:31:23;8.25;;;6.30;;
10440;SDS011;5268;49.346;9.522;2023-08-17T06:36:30;6.22;;;5.63;;
10440;SDS011;5268;49.346;9.522;2023-08-17T06:41:33;6.45;;;5.82;;
10440;SDS011;5268;49.346;9.522;2023-08-17T06:46:35;7.28;;;5.47;;
10440;SDS011;5268;49.346;9.522;2023-08-17T06:51:37;7.03;;;6.32;;
10440;SDS011;5268;49.346;9.522;2023-08-17T06:56:41;7.03;;;5.70;;
10440;SDS011;5268;49.346;9.522;2023-08-17T07:01:43;6.55;;;5.63;;
10440;SDS011;5268;49.346;9.522;2023-08-17T07:06:46;6.53;;;5.90;;
10440;SDS011;5268;49.346;9.522;2023-08-17T07:11:50;7.78;;;6.70;;
10440;SDS011;5268;49.346;9.522;2023-08-17T07:16:52;6.55;;;5.95;;
10440;SDS011;5268;49.346;9.522;2023-08-17T07:21:54;6.75;;;5.85;;
10440;SDS011;5268;49.346;9.522;2023-08-17T07:26:58;6.40;;;5.80;;
10440;SDS011;5268;49.346;9.522;2023-08-17T07:32:00;7.07;;;6.38;;
10440;SDS011;5268;49.346;9.522;2023-08-17T07:37:03;6.88;;;6.18;;
10440;SDS011;5268;49.346;9.522;2023-08-17T07:42:08;6.57;;;5.72;;
10440;SDS011;5268;49.346;9.522;2023-08-17T07:47:10;6.63;;;6.03;;
10440;SDS011;5268;49.346;9.522;2023-08-17T07:52:12;6.70;;;6.03;;
10440;SDS011;5268;49.346;9.522;2023-08-17T07:57:15;6.22;;;5.65;;
10440;SDS011;5268;49.346;9.522;2023-08-17T08:02:17;5.78;;;5.13;;
10440;SDS011;5268;49.346;9.522;2023-08-17T08:07:19;6.68;;;5.50;;
10440;SDS011;5268;49.346;9.522;2023-08-17T08:12:22;6.22;;;5.63;;
10440;SDS011;5268;49.346;9.522;2023-08-17T08:17:25;6.05;;;5.45;;
10440;SDS011;5268;49.346;9.522;2023-08-17T08:22:27;6.88;;;5.20;;
10440;SDS011;5268;49.346;9.522;2023-08-17T08:27:30;6.00;;;5.05;;
10440;SDS011;5268;49.346;9.522;2023-08-17T08:32:32;5.57;;;5.07;;
10440;SDS011;5268;49.346;9.522;2023-08-17T08:37:34;6.75;;;5.20;;
10440;SDS011;5268;49.346;9.522;2023-08-17T08:42:38;5.25;;;4.55;;
10440;SDS011;5268;49.346;9.522;2023-08-17T08:47:40;5.40;;;4.90;;
10440;SDS011;5268;49.346;9.522;2023-08-17T08:52:49;7.55;;;5.35;;
10440;SDS011;5268;49.346;9.522;2023-08-17T08:58:00;7.72;;;5.90;;
10440;SDS011;5268;49.346;9.522;2023-08-17T09:03:04;5.70;;;5.20;;
10440;SDS011;5268;49.346;9.522;2023-08-17T09:08:08;5.90;;;5.10;;
10440;SDS011;5268;49.346;9.522;2023-08-17T09:13:13;5.70;;;5.10;;
10440;SDS011;5268;49.346;9.522;2023-08-17T09:18:15;5.55;;;5.05;;
10440;SDS011;5268;49.346;9.522;2023-08-17T09:23:18;6.03;;;5.45;;
10440;SDS011;5268;49.346;9.522;2023-08-17T09:28:24;6.18;;;5.55;;
10440;SDS011;5268;49.346;9.522;2023-08-17T09:33:26;6.00;;;5.40;;
10440;SDS011;5268;49.346;9.522;2023-08-17T09:38:29;6.72;;;5.45;;
10440;SDS011;5268;49.346;9.522;2023-08-17T09:43:33;5.30;;;4.90;;
10440;SDS011;5268;49.346;9.522;2023-08-17T09:48:36;6.13;;;5.53;;
10440;SDS011;5268;49.346;9.522;2023-08-17T09:53:38;5.93;;;5.18;;
10440;SDS011;5268;49.346;9.522;2023-08-17T09:58:42;6.72;;;5.40;;
10440;SDS011;5268;49.346;9.522;2023-08-17T10:03:44;6.90;;;4.85;;
10440;SDS011;5268;49.346;9.522;2023-08-17T10:08:47;6.15;;;5.03;;
10440;SDS011;5268;49.346;9.522;2023-08-17T10:13:54;7.60;;;5.22;;
10440;SDS011;5268;49.346;9.522;2023-08-17T10:19:05;5.75;;;5.22;;
10440;SDS011;5268;49.346;9.522;2023-08-17T10:24:12;6.60;;;5.05;;
10440;SDS011;5268;49.346;9.522;2023-08-17T10:29:16;6.05;;;4.60;;
10440;SDS011;5268;49.346;9.522;2023-08-17T10:34:19;6.70;;;5.10;;
10440;SDS011;5268;49.346;9.522;2023-08-17T10:39:22;5.32;;;4.75;;
10440;SDS011;5268;49.346;9.522;2023-08-17T10:49:45;5.10;;;4.45;;
10440;SDS011;5268;49.346;9.522;2023-08-17T10:54:48;5.10;;;4.50;;
10440;SDS011;5268;49.346;9.522;2023-08-17T11:00:05;5.25;;;4.75;;
10440;SDS011;5268;49.346;9.522;2023-08-17T11:05:40;5.53;;;4.97;;
10440;SDS011;5268;49.346;9.522;2023-08-17T11:10:47;5.60;;;4.97;;
10440;SDS011;5268;49.346;9.522;2023-08-17T11:15:51;9.88;;;4.93;;
10440;SDS011;5268;49.346;9.522;2023-08-17T11:20:53;4.97;;;4.57;;
10440;SDS011;5268;49.346;9.522;2023-08-17T11:25:57;5.60;;;4.93;;
10440;SDS011;5268;49.346;9.522;2023-08-17T11:31:02;5.68;;;4.80;;
10440;SDS011;5268;49.346;9.522;2023-08-17T11:36:06;5.47;;;4.80;;
10440;SDS011;5268;49.346;9.522;2023-08-17T11:41:10;5.68;;;5.07;;
10440;SDS011;5268;49.346;9.522;2023-08-17T11:46:14;5.72;;;5.20;;
10440;SDS011;5268;49.346;9.522;2023-08-17T11:51:18;6.13;;;5.20;;
10440;SDS011;5268;49.346;9.522;2023-08-17T11:56:29;6.05;;;5.07;;
10440;SDS011;5268;49.346;9.522;2023-08-17T12:01:33;5.90;;;5.30;;
10440;SDS011;5268;49.346;9.522;2023-08-17T12:06:36;6.60;;;5.07;;
10440;SDS011;5268;49.346;9.522;2023-08-17T12:11:44;6.88;;;5.32;;
10440;SDS011;5268;49.346;9.522;2023-08-17T12:16:48;5.80;;;5.20;;
10440;SDS011;5268;49.346;9.522;2023-08-17T12:21:50;5.95;;;5.35;;
10440;SDS011;5268;49.346;9.522;2023-08-17T12:26:52;7.50;;;5.85;;
10440;SDS011;5268;49.346;9.522;2023-08-17T12:32:00;7.00;;;5.57;;
10440;SDS011;5268;49.346;9.522;2023-08-17T12:37:02;6.25;;;5.50;;
10440;SDS011;5268;49.346;9.522;2023-08-17T12:42:05;5.80;;;5.30;;
10440;SDS011;5268;49.346;9.522;2023-08-17T12:47:09;5.93;;;5.32;;
10440;SDS011;5268;49.346;9.522;2023-08-17T12:52:12;6.45;;;5.85;;
10440;SDS011;5268;49.346;9.522;2023-08-17T12:57:14;6.28;;;5.53;;
10440;SDS011;5268;49.346;9.522;2023-08-17T13:02:17;6.13;;;5.63;;
10440;SDS011;5268;49.346;9.522;2023-08-17T13:07:19;6.30;;;5.70;;
10440;SDS011;5268;49.346;9.522;2023-08-17T13:12:21;5.90;;;4.88;;
10440;SDS011;5268;49.346;9.522;2023-08-17T13:17:24;7.22;;;5.72;;
10440;SDS011;5268;49.346;9.522;2023-08-17T13:22:26;5.57;;;5.10;;
10440;SDS011;5268;49.346;9.522;2023-08-17T13:27:28;5.40;;;4.88;;
10440;SDS011;5268;49.346;9.522;2023-08-17T13:32:32;5.88;;;5.28;;
10440;SDS011;5268;49.346;9.522;2023-08-17T13:42:37;5.95;;;4.63;;
10440;SDS011;5268;49.346;9.522;2023-08-17T13:47:41;5.30;;;4.78;;
10440;SDS011;5268;49.346;9.522;2023-08-17T13:52:45;5.28;;;4.68;;
10440;SDS011;5268;49.346;9.522;2023-08-17T13:57:47;5.63;;;4.63;;
10440;SDS011;5268;49.346;9.522;2023-08-17T14:02:50;4.80;;;4.30;;
10440;SDS011;5268;49.346;9.522;2023-08-17T14:07:52;5.05;;;4.32;;
10440;SDS011;5268;49.346;9.522;2023-08-17T14:12:54;6.22;;;4.00;;
10440;SDS011;5268;49.346;9.522;2023-08-17T14:17:57;5.90;;;4.57;;
10440;SDS011;5268;49.346;9.522;2023-08-17T14:22:59;5.13;;;4.60;;
10440;SDS011;5268;49.346;9.522;2023-08-17T14:28:03;5.53;;;4.95;;
10440;SDS011;5268;49.346;9.522;2023-08-17T14:33:08;5.18;;;4.43;;
10440;SDS011;5268;49.346;9.522;2023-08-17T14:38:10;6.97;;;4.15;;
10440;SDS011;5268;49.346;9.522;2023-08-17T14:43:13;5.65;;;3.95;;
10440;SDS011;5268;49.346;9.522;2023-08-17T14:48:17;4.82;;;3.90;;
10440;SDS011;5268;49.346;9.522;2023-08-17T14:53:19;4.63;;;4.20;;
10440;SDS011;5268;49.346;9.522;2023-08-17T14:58:21;4.75;;;4.28;;
10440;SDS011;5268;49.346;9.522;2023-08-17T15:03:25;4.60;;;4.20;;
10440;SDS011;5268;49.346;9.522;2023-08-17T15:08:27;7.28;;;4.68;;
10440;SDS011;5268;49.346;9.522;2023-08-17T15:13:29;7.40;;;5.15;;
10440;SDS011;5268;49.346;9.522;2023-08-17T15:18:32;4.90;;;4.38;;
10440;SDS011;5268;49.346;9.522;2023-08-17T15:23:34;5.20;;;4.28;;
10440;SDS011;5268;49.346;9.522;2023-08-17T15:28:37;4.95;;;4.43;;
10440;SDS011;5268;49.346;9.522;2023-08-17T15:33:41;9.52;;;4.65;;
10440;SDS011;5268;49.346;9.522;2023-08-17T15:38:43;5.07;;;4.30;;
10440;SDS011;5268;49.346;9.522;2023-08-17T15:43:45;6.80;;;4.47;;
10440;SDS011;5268;49.346;9.522;2023-08-17T15:48:48;4.63;;;4.22;;
10440;SDS011;5268;49.346;9.522;2023-08-17T15:53:50;5.13;;;4.47;;
10440;SDS011;5268;49.346;9.522;2023-08-17T15:58:52;7.35;;;4.80;;
10440;SDS011;5268;49.346;9.522;2023-08-17T16:03:56;4.70;;;4.30;;
10440;SDS011;5268;49.346;9.522;2023-08-17T16:08:57;5.30;;;4.75;;
10440;SDS011;5268;49.346;9.522;2023-08-17T16:13:59;7.13;;;5.13;;
10440;SDS011;5268;49.346;9.522;2023-08-17T16:19:03;6.40;;;5.70;;
10440;SDS011;5268;49.346;9.522;2023-08-17T16:24:05;6.85;;;6.05;;
10440;SDS011;5268;49.346;9.522;2023-08-17T16:29:07;6.53;;;5.88;;
10440;SDS011;5268;49.346;9.522;2023-08-17T16:34:10;6.63;;;6.03;;
10440;SDS011;5268;49.346;9.522;2023-08-17T16:39:12;6.85;;;6.03;;
10440;SDS011;5268;49.346;9.522;2023-08-17T16:44:14;6.38;;;5.78;;
10440;SDS011;5268;49.346;9.522;2023-08-17T16:49:17;7.40;;;6.65;;
10440;SDS011;5268;49.346;9.522;2023-08-17T16:54:19;7.22;;;6.53;;
10440;SDS011;5268;49.346;9.522;2023-08-17T16:59:21;6.88;;;6.25;;
10440;SDS011;5268;49.346;9.522;2023-08-17T17:04:24;8.10;;;7.07;;
10440;SDS011;5268;49.346;9.522;2023-08-17T17:09:26;7.47;;;6.82;;
10440;SDS011;5268;49.346;9.522;2023-08-17T17:14:28;7.90;;;7.30;;
10440;SDS011;5268;49.346;9.522;2023-08-17T17:19:32;7.68;;;6.88;;
10440;SDS011;5268;49.346;9.522;2023-08-17T17:24:34;8.18;;;7.57;;
10440;SDS011;5268;49.346;9.522;2023-08-17T17:29:36;8.15;;;7.45;;
10440;SDS011;5268;49.346;9.522;2023-08-17T17:34:39;7.38;;;6.78;;
10440;SDS011;5268;49.346;9.522;2023-08-17T17:39:41;8.10;;;7.40;;
10440;SDS011;5268;49.346;9.522;2023-08-17T17:44:43;8.02;;;7.20;;
10440;SDS011;5268;49.346;9.522;2023-08-17T17:49:46;7.43;;;6.82;;
10440;SDS011;5268;49.346;9.522;2023-08-17T17:54:48;8.30;;;7.60;;
10440;SDS011;5268;49.346;9.522;2023-08-17T17:59:50;8.45;;;7.63;;
10440;SDS011;5268;49.346;9.522;2023-08-17T18:04:53;8.30;;;7.55;;
10440;SDS011;5268;49.346;9.522;2023-08-17T18:09:55;8.80;;;8.00;;
10440;SDS011;5268;49.346;9.522;2023-08-17T18:14:57;7.60;;;7.00;;
10440;SDS011;5268;49.346;9.522;2023-08-17T18:20:01;8.55;;;7.70;;
10440;SDS011;5268;49.346;9.522;2023-08-17T18:25:04;7.55;;;6.95;;
10440;SDS011;5268;49.346;9.522;2023-08-17T18:30:09;7.93;;;7.10;;
10440;SDS011;5268;49.346;9.522;2023-08-17T18:35:13;8.70;;;7.90;;
10440;SDS011;5268;49.346;9.522;2023-08-17T18:40:16;8.32;;;7.60;;
10440;SDS011;5268;49.346;9.522;2023-08-17T18:45:19;8.70;;;7.80;;
10440;SDS011;5268;49.346;9.522;2023-08-17T18:50:23;8.55;;;7.78;;
10440;SDS011;5268;49.346;9.522;2023-08-17T18:55:28;9.10;;;7.78;;
10440;SDS011;5268;49.346;9.522;2023-08-17T19:00:30;9.73;;;8.73;;
10440;SDS011;5268;49.346;9.522;2023-08-17T19:05:33;10.45;;;8.70;;
10440;SDS011;5268;49.346;9.522;2023-08-17T19:10:36;10.07;;;8.90;;
10440;SDS011;5268;49.346;9.522;2023-08-17T19:15:37;10.13;;;8.82;;
10440;SDS011;5268;49.346;9.522;2023-08-17T19:20:41;10.05;;;8.40;;
10440;SDS011;5268;49.346;9.522;2023-08-17T19:25:43;8.65;;;7.88;;
10440;SDS011;5268;49.346;9.522;2023-08-17T19:30:46;7.60;;;6.88;;
10440;SDS011;5268;49.346;9.522;2023-08-17T19:35:49;7.20;;;6.50;;
10440;SDS011;5268;49.346;9.522;2023-08-17T19:40:52;7.72;;;6.93;;
10440;SDS011;5268;49.346;9.522;2023-08-17T19:45:54;8.32;;;7.40;;
10440;SDS011;5268;49.346;9.522;2023-08-17T19:50:57;8.25;;;7.18;;
10440;SDS011;5268;49.346;9.522;2023-08-17T19:55:59;7.90;;;7.10;;
10440;SDS011;5268;49.346;9.522;2023-08-17T20:01:05;12.82;;;7.65;;
10440;SDS011;5268;49.346;9.522;2023-08-17T20:06:09;7.88;;;7.07;;
10440;SDS011;5268;49.346;9.522;2023-08-17T20:11:11;11.25;;;6.50;;
10440;SDS011;5268;49.346;9.522;2023-08-17T20:16:13;7.03;;;6.35;;
10440;SDS011;5268;49.346;9.522;2023-08-17T20:21:17;10.98;;;7.18;;
10440;SDS011;5268;49.346;9.522;2023-08-17T20:26:19;6.78;;;6.18;;
10440;SDS011;5268;49.346;9.522;2023-08-17T20:31:21;7.38;;;6.60;;
10440;SDS011;5268;49.346;9.522;2023-08-17T20:36:24;9.18;;;6.63;;
10440;SDS011;5268;49.346;9.522;2023-08-17T20:41:27;8.68;;;7.15;;
10440;SDS011;5268;49.346;9.522;2023-08-17T20:46:29;10.13;;;7.85;;
10440;SDS011;5268;49.346;9.522;2023-08-17T20:51:33;10.25;;;6.93;;
10440;SDS011;5268;49.346;9.522;2023-08-17T20:56:34;11.52;;;7.63;;
10440;SDS011;5268;49.346;9.522;2023-08-17T21:01:36;8.50;;;6.38;;
10440;SDS011;5268;49.346;9.522;2023-08-17T21:06:40;7.20;;;6.25;;
10440;SDS011;5268;49.346;9.522;2023-08-17T21:11:42;8.55;;;6.38;;
10440;SDS011;5268;49.346;9.522;2023-08-17T21:16:44;7.38;;;6.07;;
10440;SDS011;5268;49.346;9.522;2023-08-17T21:21:47;9.30;;;6.47;;
10440;SDS011;5268;49.346;9.522;2023-08-17T21:26:49;9.05;;;6.50;;
10440;SDS011;5268;49.346;9.522;2023-08-17T21:31:52;7.68;;;6.47;;
10440;SDS011;5268;49.346;9.522;2023-08-17T21:36:55;8.48;;;6.10;;
10440;SDS011;5268;49.346;9.522;2023-08-17T21:41:57;7.65;;;6.05;;
10440;SDS011;5268;49.346;9.522;2023-08-17T21:46:59;7.95;;;6.05;;
10440;SDS011;5268;49.346;9.522;2023-08-17T21:52:03;7.63;;;6.30;;
